Time;durP1;ratioP1;P1;durP2;ratioP2;P2;SDS_P1;SDS_P2;PMS_P1;PMS_P2;Temp;Humidity;BMP_temperature;BMP_pressure;BME280_temperature;BME280_humidity;BME280_pressure;Samples;Min_cycle;Max_cycle;Signal;HPM_P1;HPM_P2
2022/12/23 00:01:36;;;;;;;49.55;18.00;;;;;;;8.80;100.00;100193.44;5058981;28;20024;-92
2022/12/23 00:04:04;;;;;;;57.58;19.90;;;;;;;8.83;100.00;100202.97;5059865;28;20071;-92
2022/12/23 00:06:41;;;;;;;52.25;19.88;;;;;;;8.81;100.00;100207.78;5058574;28;20043;-92
2022/12/23 00:09:22;;;;;;;;;;;;;;;;;;;;;
2022/12/23 00:17:44;;;;;;;58.28;21.75;;;;;;;8.82;100.00;100210.25;5061658;28;20043;-93
2022/12/23 00:20:44;;;;;;;;;;;;;;;;;;;;;
2022/12/23 00:23:20;;;;;;;61.08;22.48;;;;;;;8.80;100.00;100220.47;5075606;28;20040;-92
2022/12/23 00:26:06;;;;;;;68.65;22.88;;;;;;;8.81;100.00;100215.88;5041908;28;20136;-92
2022/12/23 00:28:59;;;;;;;67.28;23.25;;;;;;;8.81;100.00;100222.13;5058970;28;20111;-93
2022/12/23 00:32:01;;;;;;;69.78;25.20;;;;;;;8.80;100.00;100212.38;5058340;28;20036;-92
2022/12/23 00:34:36;;;;;;;67.10;23.80;;;;;;;8.87;100.00;100223.97;5042865;28;20048;-92
2022/12/23 00:37:41;;;;;;;61.17;22.15;;;;;;;8.82;100.00;100220.25;5041755;28;20119;-92
2022/12/23 00:43:09;;;;;;;58.80;20.88;;;;;;;8.84;100.00;100234.38;5076068;28;20043;-92
2022/12/23 00:52:08;;;;;;;63.78;20.73;;;;;;;8.77;100.00;100239.84;4994149;28;20048;-92
2022/12/23 00:54:39;;;;;;;66.18;23.00;;;;;;;8.83;100.00;100270.59;4990378;28;20044;-92
2022/12/23 01:06:52;;;;;;;72.28;23.52;;;;;;;8.77;100.00;100273.13;5075616;28;20163;-92
2022/12/23 01:09:31;;;;;;;77.70;24.17;;;;;;;8.74;100.00;100264.59;5057226;28;20078;-91
2022/12/23 01:11:58;;;;;;;62.15;24.20;;;;;;;8.75;100.00;100268.97;5057016;28;20060;-91
2022/12/23 01:14:36;;;;;;;;;;;;;;;;;;;;;
2022/12/23 01:17:14;;;;;;;68.05;23.00;;;;;;;8.77;100.00;100272.31;5058943;28;20043;-91
2022/12/23 01:19:41;;;;;;;65.65;23.17;;;;;;;8.75;100.00;100271.69;5057369;28;20380;-91
2022/12/23 01:22:15;;;;;;;70.55;24.38;;;;;;;8.76;100.00;100266.06;5040314;28;20392;-91
2022/12/23 01:24:43;;;;;;;69.25;23.75;;;;;;;8.74;100.00;100272.72;5040769;28;20055;-91
2022/12/23 01:27:09;;;;;;;72.10;24.10;;;;;;;8.76;100.00;100267.94;5074542;28;20029;-91
2022/12/23 01:30:05;;;;;;;75.38;23.73;;;;;;;8.78;100.00;100274.81;5056698;28;20032;-91
2022/12/23 01:32:36;;;;;;;63.70;22.42;;;;;;;8.75;100.00;100274.38;5043985;28;20037;-90
2022/12/23 01:35:07;;;;;;;75.97;24.15;;;;;;;8.79;100.00;100278.31;5057108;28;20112;-91
2022/12/23 01:37:33;;;;;;;69.70;23.35;;;;;;;8.78;100.00;100282.91;5040100;28;20052;-90
2022/12/23 01:40:07;;;;;;;83.07;25.52;;;;;;;8.76;100.00;100273.34;5056336;28;20068;-91
2022/12/23 01:42:50;;;;;;;76.03;24.83;;;;;;;8.73;100.00;100271.09;5057563;28;20123;-91
2022/12/23 01:45:31;;;;;;;74.95;25.73;;;;;;;8.73;100.00;100271.09;5042998;28;20515;-91
2022/12/23 01:48:23;;;;;;;;;;;;;;;;;;;;;
2022/12/23 01:51:09;;;;;;;81.65;24.95;;;;;;;8.73;100.00;100281.91;5074766;28;20027;-90
2022/12/23 01:53:45;;;;;;;80.13;26.35;;;;;;;8.75;100.00;100282.50;5056825;28;20100;-90
2022/12/23 01:56:22;;;;;;;80.85;26.13;;;;;;;8.79;100.00;100302.66;5056354;28;20103;-91
2022/12/23 01:59:11;;;;;;;;;;;;;;;;;;;;;
2022/12/23 02:04:29;;;;;;;82.78;26.60;;;;;;;8.75;100.00;100315.81;5073892;28;20055;-90
2022/12/23 02:09:53;;;;;;;;;;;;;;;;;;;;;
2022/12/23 02:12:35;;;;;;;76.30;25.63;;;;;;;8.74;100.00;100324.13;5043624;28;20029;-91
2022/12/23 02:18:45;;;;;;;78.45;26.33;;;;;;;8.78;100.00;100320.78;5039118;28;20051;-91
2022/12/23 02:24:53;;;;;;;70.97;24.20;;;;;;;8.75;100.00;100317.66;5074187;28;20044;-91
2022/12/23 02:27:39;;;;;;;76.57;24.55;;;;;;;8.77;100.00;100324.53;5056725;28;20033;-91
2022/12/23 02:30:26;;;;;;;70.45;24.15;;;;;;;8.78;100.00;100328.06;5073910;28;20029;-91
2022/12/23 02:33:34;;;;;;;75.60;24.17;;;;;;;8.73;100.00;100325.19;5074056;28;20029;-91
2022/12/23 02:36:09;;;;;;;74.05;23.15;;;;;;;8.75;100.00;100333.91;5044360;28;20028;-91
2022/12/23 02:38:58;;;;;;;64.72;22.20;;;;;;;8.73;100.00;100355.75;5056470;28;20064;-91
2022/12/23 02:41:55;;;;;;;67.30;22.50;;;;;;;8.73;100.00;100344.13;5055612;28;20024;-91
2022/12/23 02:44:54;;;;;;;;;;;;;;;;;;;;;
2022/12/23 02:48:04;;;;;;;63.22;21.55;;;;;;;8.72;100.00;100372.19;5073831;28;20031;-91
2022/12/23 02:50:46;;;;;;;71.43;22.30;;;;;;;8.70;100.00;100367.00;5024048;28;20401;-91
2022/12/23 02:53:34;;;;;;;;;;;;;;;;;;;;;
2022/12/23 02:56:02;;;;;;;61.53;18.88;;;;;;;8.75;100.00;100385.28;5073626;28;20453;-90
2022/12/23 02:58:39;;;;;;;65.03;20.30;;;;;;;8.74;100.00;100383.63;5055731;28;20044;-90
2022/12/23 03:01:14;;;;;;;66.28;20.02;;;;;;;8.74;100.00;100386.31;5055525;28;20105;-91
2022/12/23 03:03:41;;;;;;;63.72;19.42;;;;;;;8.69;100.00;100369.91;5056128;28;20032;-91
2022/12/23 03:06:30;;;;;;;;;;;;;;;;;;;;;
2022/12/23 03:09:02;;;;;;;59.40;18.30;;;;;;;8.69;100.00;100372.63;5074665;28;20028;-91
2022/12/23 03:11:58;;;;;;;63.78;19.67;;;;;;;8.75;100.00;100382.59;5074947;28;20048;-90
2022/12/23 03:14:44;;;;;;;62.42;18.83;;;;;;;8.71;100.00;100384.06;5076079;28;20024;-91
2022/12/23 03:20:51;;;;;;;;;;;;;;;;;;;;;
2022/12/23 03:23:52;;;;;;;70.80;18.50;;;;;;;8.74;100.00;100384.47;5078963;28;20052;-90
2022/12/23 03:26:53;;;;;;;69.78;19.92;;;;;;;8.72;100.00;100391.94;5064315;28;20036;-91
2022/12/23 03:29:21;;;;;;;63.97;18.20;;;;;;;8.69;100.00;100372.63;5026965;28;20029;-91
2022/12/23 03:32:07;;;;;;;66.97;19.50;;;;;;;8.67;100.00;100383.66;5059305;28;20476;-91
2022/12/23 03:34:47;;;;;;;64.75;19.52;;;;;;;8.65;100.00;100363.28;5059734;28;20086;-91
2022/12/23 03:40:58;;;;;;;;;;;;;;;;;;;;;
2022/12/23 03:43:40;;;;;;;70.10;18.92;;;;;;;8.62;100.00;100374.53;5077663;28;20463;-91
2022/12/23 03:46:26;;;;;;;65.38;18.25;;;;;;;8.60;100.00;100355.81;5058546;28;20040;-92
2022/12/23 03:49:23;;;;;;;;;;;;;;;;;;;;;
2022/12/23 03:52:02;;;;;;;68.72;19.10;;;;;;;8.61;100.00;100368.28;5076942;28;20031;-91
2022/12/23 03:55:01;;;;;;;;;;;;;;;;;;;;;
2022/12/23 03:57:43;;;;;;;66.22;19.38;;;;;;;8.55;100.00;100369.97;5077827;28;20039;-91
2022/12/23 04:00:12;;;;;;;71.45;19.17;;;;;;;8.52;100.00;100365.00;5058908;28;20123;-91
2022/12/23 04:02:57;;;;;;;67.68;19.70;;;;;;;8.58;100.00;100374.97;5058757;28;20056;-92
2022/12/23 04:05:22;;;;;;;67.25;18.65;;;;;;;8.56;100.00;100382.47;5058422;28;20468;-91
2022/12/23 04:08:19;;;;;;;80.65;19.77;;;;;;;8.59;100.00;100384.75;5059495;28;20028;-92
2022/12/23 04:10:53;;;;;;;80.68;20.00;;;;;;;8.52;100.00;100381.22;5058381;28;20062;-91
2022/12/23 04:13:31;;;;;;;;;;;;;;;;;;;;;
2022/12/23 04:16:20;;;;;;;77.78;21.17;;;;;;;8.52;100.00;100386.63;5060893;28;20380;-91
2022/12/23 04:19:00;;;;;;;83.63;21.92;;;;;;;8.51;100.00;100393.06;5042648;28;20461;-91
2022/12/23 04:21:33;;;;;;;73.75;20.58;;;;;;;8.51;100.00;100398.47;5059002;28;20033;-92
2022/12/23 04:24:21;;;;;;;;;;;;;;;;;;;;;
2022/12/23 04:27:16;;;;;;;;;;;;;;;;;;;;;
2022/12/23 04:30:22;;;;;;;87.20;20.48;;;;;;;8.55;100.00;100412.41;5076953;28;20021;-92
2022/12/23 04:32:53;;;;;;;75.35;20.50;;;;;;;8.48;100.00;100415.13;5047411;28;20441;-93
2022/12/23 04:35:30;;;;;;;75.68;21.38;;;;;;;8.48;100.00;100422.44;5042619;28;20033;-92
2022/12/23 04:38:26;;;;;;;81.88;20.83;;;;;;;8.46;100.00;100419.94;5059137;28;20388;-91
2022/12/23 04:40:59;;;;;;;78.30;20.00;;;;;;;8.47;100.00;100416.16;5061392;28;20047;-91
2022/12/23 04:43:28;;;;;;;82.70;20.27;;;;;;;8.51;100.00;100417.41;5076486;28;20056;-92
2022/12/23 04:46:10;;;;;;;82.50;21.20;;;;;;;8.52;100.00;100415.53;5060502;28;20111;-91
2022/12/23 04:48:55;;;;;;;84.20;20.90;;;;;;;8.47;100.00;100402.66;5053506;28;20107;-93
2022/12/23 04:51:23;;;;;;;78.20;20.40;;;;;;;8.47;100.00;100402.66;5065989;28;20021;-92
2022/12/23 04:54:04;;;;;;;;;;;;;;;;;;;;;
2022/12/23 04:56:50;;;;;;;73.53;20.73;;;;;;;8.51;100.00;100406.59;5078304;28;20024;-91
2022/12/23 04:59:31;;;;;;;;;;;;;;;;;;;;;
2022/12/23 05:02:00;;;;;;;83.65;19.75;;;;;;;8.52;100.00;100391.19;5076281;28;20035;-92
2022/12/23 05:04:30;;;;;;;78.25;20.30;;;;;;;8.47;100.00;100391.00;5041048;28;20036;-92
2022/12/23 05:07:18;;;;;;;;;;;;;;;;;;;;;
2022/12/23 05:10:04;;;;;;;;;;;;;;;;;;;;;
2022/12/23 05:12:47;;;;;;;69.57;18.08;;;;;;;8.46;100.00;100387.50;5076386;28;20046;-91
2022/12/23 05:15:12;;;;;;;74.30;18.65;;;;;;;8.45;100.00;100391.22;5042759;28;20063;-91
2022/12/23 05:18:01;;;;;;;;;;;;;;;;;;;;;
2022/12/23 05:20:29;;;;;;;74.25;19.02;;;;;;;8.45;100.00;100402.03;5075658;28;20115;-91
2022/12/23 05:23:05;;;;;;;72.03;18.98;;;;;;;8.50;100.00;100421.16;5040535;28;20040;-93
2022/12/23 05:25:36;;;;;;;73.97;20.42;;;;;;;8.52;100.00;100431.75;5041531;28;20032;-91
2022/12/23 05:28:20;;;;;;;;;;;;;;;;;;;;;
2022/12/23 05:31:10;;;;;;;71.90;19.27;;;;;;;8.47;100.00;100437.78;5075295;28;20027;-92
2022/12/23 05:33:45;;;;;;;73.88;19.98;;;;;;;8.46;100.00;100441.56;5057221;28;20117;-92
2022/12/23 05:36:31;;;;;;;;;;;;;;;;;;;;;
2022/12/23 05:39:22;;;;;;;76.63;18.60;;;;;;;8.51;100.00;100449.03;5074565;28;20029;-91
2022/12/23 05:42:03;;;;;;;75.30;18.13;;;;;;;8.48;100.00;100441.34;5057686;28;20040;-92
2022/12/23 05:44:38;;;;;;;77.22;19.42;;;;;;;8.50;100.00;100455.47;5042843;28;20036;-91
2022/12/23 05:47:55;;;;;;;79.55;20.67;;;;;;;8.51;100.00;100457.97;5056521;28;20028;-91
2022/12/23 05:50:23;;;;;;;78.18;20.42;;;;;;;8.50;100.00;100450.06;5056594;28;20036;-91
2022/12/23 05:53:06;;;;;;;;;;;;;;;;;;;;;
2022/12/23 05:56:03;;;;;;;;;;;;;;;;;;;;;
2022/12/23 05:58:45;;;;;;;;;;;;;;;;;;;;;
2022/12/23 06:01:13;;;;;;;79.90;22.30;;;;;;;8.45;100.00;100414.75;5074268;28;20036;-91
2022/12/23 06:03:51;;;;;;;;;;;;;;;;;;;;;
2022/12/23 06:09:29;;;;;;;97.40;25.10;;;;;;;8.42;100.00;100410.53;5039996;28;20047;-91
2022/12/23 06:12:06;;;;;;;92.00;25.27;;;;;;;8.45;100.00;100415.56;5058774;28;20044;-91
2022/12/23 06:14:36;;;;;;;101.15;26.30;;;;;;;8.39;100.00;100398.28;5057681;28;20517;-92
2022/12/23 06:17:04;;;;;;;92.55;26.00;;;;;;;8.47;100.00;100409.94;5074688;28;20075;-91
2022/12/23 06:19:46;;;;;;;100.25;26.17;;;;;;;8.43;100.00;100404.09;5040238;28;20044;-91
2022/12/23 06:22:24;;;;;;;;;;;;;;;;;;;;;
2022/12/23 06:24:58;;;;;;;90.38;25.23;;;;;;;8.38;100.00;100387.69;5076734;28;20119;-91
2022/12/23 06:27:26;;;;;;;99.90;27.20;;;;;;;8.39;100.00;100392.06;5059079;28;20047;-91
2022/12/23 06:30:32;;;;;;;104.97;27.33;;;;;;;8.42;100.00;100399.72;5042928;28;20082;-90
2022/12/23 06:33:02;;;;;;;103.00;26.33;;;;;;;8.39;100.00;100405.56;5075521;28;20051;-91
2022/12/23 06:35:29;;;;;;;105.88;27.08;;;;;;;8.39;100.00;100417.19;5039880;28;20029;-91
2022/12/23 06:38:00;;;;;;;98.47;27.30;;;;;;;8.38;100.00;100407.41;5056617;28;20096;-92
2022/12/23 06:40:41;;;;;;;;;;;;;;;;;;;;;
2022/12/23 06:43:16;;;;;;;111.13;26.90;;;;;;;8.38;100.00;100412.81;5064757;28;20114;-89
2022/12/23 06:45:49;;;;;;;105.90;27.05;;;;;;;8.42;100.00;100419.47;5057151;28;20056;-88
2022/12/23 06:48:32;;;;;;;104.15;27.77;;;;;;;8.39;100.00;100427.19;5074364;28;20101;-88
2022/12/23 06:51:09;;;;;;;;;;;;;;;;;;;;;
2022/12/23 06:53:38;;;;;;;114.47;27.77;;;;;;;8.43;100.00;100442.78;5078802;28;20441;-90
2022/12/23 06:56:21;;;;;;;120.47;28.48;;;;;;;8.43;100.00;100448.19;5059970;28;20052;-89
2022/12/23 06:59:39;;;;;;;118.78;28.80;;;;;;;8.42;100.00;100451.91;5059888;28;20032;-90
2022/12/23 07:02:07;;;;;;;112.50;29.00;;;;;;;8.41;100.00;100463.78;5078583;28;20048;-91
2022/12/23 07:04:56;;;;;;;113.50;28.50;;;;;;;8.46;100.00;100478.56;5060653;28;20039;-91
2022/12/23 07:07:36;;;;;;;;;;;;;;;;;;;;;
2022/12/23 07:10:09;;;;;;;119.13;29.45;;;;;;;8.39;100.00;100482.09;5065797;28;20112;-91
2022/12/23 07:12:47;;;;;;;121.00;30.00;;;;;;;8.46;100.00;100489.38;5069735;28;20050;-92
2022/12/23 07:15:23;;;;;;;119.60;27.75;;;;;;;8.42;100.00;100470.03;5036365;28;20024;-91
2022/12/23 07:18:05;;;;;;;;;;;;;;;;;;;;;
2022/12/23 07:28:11;;;;;;;;;;;;;;;;;;;;;
2022/12/23 07:41:07;;;;;;;126.57;26.08;;;;;;;8.36;100.00;100439.25;5001745;28;20030;-91
2022/12/23 07:50:16;;;;;;;121.93;27.55;;;;;;;8.34;100.00;100440.50;4931230;28;20122;-91
2022/12/23 07:52:49;;;;;;;126.43;27.85;;;;;;;8.36;100.00;100450.06;5045840;28;20131;-91
2022/12/23 07:55:28;;;;;;;124.13;26.52;;;;;;;8.33;100.00;100458.59;5062107;28;20024;-90
2022/12/23 07:58:15;;;;;;;;;;;;;;;;;;;;;
2022/12/23 08:00:40;;;;;;;111.47;25.35;;;;;;;8.29;100.00;100437.59;5077185;28;20059;-91
2022/12/23 08:03:20;;;;;;;;;;;;;;;;;;;;;
2022/12/23 08:06:05;;;;;;;115.97;24.35;;;;;;;8.28;100.00;100446.75;5015657;28;20038;-90
2022/12/23 08:08:43;;;;;;;104.85;24.35;;;;;;;8.31;100.00;100432.81;5015548;28;20081;-90
2022/12/23 08:11:45;;;;;;;105.97;24.13;;;;;;;8.29;100.00;100429.50;5014704;28;20045;-90
2022/12/23 08:17:41;;;;;;;104.25;22.15;;;;;;;8.25;100.00;100424.50;5000049;28;20049;-90
2022/12/23 08:20:19;;;;;;;;;;;;;;;;;;;;;
2022/12/23 08:22:48;;;;;;;97.03;21.67;;;;;;;8.24;100.00;100432.84;5021369;28;20036;-91
2022/12/23 08:29:01;;;;;;;93.35;20.15;;;;;;;8.27;100.00;100440.53;5056117;28;20072;-91
2022/12/23 08:45:21;;;;;;;;;;;;;;;;;;;;;
2022/12/23 08:58:23;;;;;;;70.50;17.05;;;;;;;8.25;100.00;100411.00;4936495;29;20448;-91
2022/12/23 09:14:23;;;;;;;57.55;15.23;;;;;;;8.23;100.00;100369.81;4934924;29;20094;-89
2022/12/23 09:20:18;;;;;;;57.00;13.88;;;;;;;8.25;100.00;100373.16;5000939;28;20049;-89
2022/12/23 09:22:54;;;;;;;63.85;15.57;;;;;;;8.21;100.00;100358.41;4993376;28;20122;-89
2022/12/23 09:50:18;;;;;;;;;;;;;;;;;;;;;
2022/12/23 11:27:34;;;;;;;22.67;7.38;;;;;;;8.45;100.00;100193.06;5073019;28;20489;-88
2022/12/23 11:30:03;;;;;;;27.42;8.23;;;;;;;8.39;100.00;100173.09;5054965;28;20045;-89
2022/12/23 11:32:35;;;;;;;26.92;8.50;;;;;;;8.41;100.00;100157.47;5055051;28;20036;-89
2022/12/23 12:30:16;;;;;;;20.80;7.73;;;;;;;9.31;100.00;100037.22;5055729;28;20052;-89
2022/12/23 12:33:10;;;;;;;28.30;7.53;;;;;;;9.28;100.00;100024.13;5050551;28;20053;-89
2022/12/23 13:18:07;;;;;;;15.82;7.10;;;;;;;9.19;100.00;99871.25;5065506;28;20182;-89
2022/12/23 13:29:21;;;;;;;21.88;6.80;;;;;;;9.06;100.00;99862.22;5054147;28;20048;-90
2022/12/23 13:35:35;;;;;;;;;;;;;;;;;;;;;
2022/12/23 13:38:13;;;;;;;13.37;6.80;;;;;;;9.03;100.00;99851.88;4975726;28;20038;-89
2022/12/23 13:41:06;;;;;;;19.65;7.93;;;;;;;9.07;100.00;99849.56;4957728;28;20031;-88
2022/12/23 13:57:22;;;;;;;12.93;6.15;;;;;;;8.98;100.00;99802.22;4974185;28;20493;-88
2022/12/23 14:00:21;;;;;;;13.50;6.60;;;;;;;8.96;100.00;99799.72;4956258;28;20031;-88
2022/12/23 14:03:11;;;;;;;;;;;;;;;;;;;;;
2022/12/23 14:13:07;;;;;;;8.80;4.40;;;;;;;9.06;100.00;99791.06;4915876;29;20567;-89
2022/12/23 14:20:05;;;;;;;;;;;;;;;;;;;;;
2022/12/23 14:47:17;;;;;;;8.90;6.07;;;;;;;8.91;100.00;99810.44;4996487;28;20138;-89
2022/12/23 16:51:34;;;;;;;;;;;;;;;;;;;;;
2022/12/23 17:37:04;;;;;;;44.83;6.85;;;;;;;9.88;100.00;100000.84;4875192;29;20436;-90
2022/12/23 17:43:30;;;;;;;47.88;5.40;;;;;;;9.76;100.00;100011.66;4892899;29;20059;-90
2022/12/23 17:56:08;;;;;;;45.42;6.68;;;;;;;9.69;100.00;100043.41;4878486;29;20044;-90
2022/12/23 17:58:36;;;;;;;44.53;5.60;;;;;;;9.64;100.00;100023.25;4993636;28;20178;-90
2022/12/23 18:01:52;;;;;;;;;;;;;;;;;;;;;
2022/12/23 18:04:37;;;;;;;39.83;6.38;;;;;;;9.59;100.00;100042.06;5054269;28;20040;-91
2022/12/23 18:11:02;;;;;;;44.15;6.32;;;;;;;9.52;100.00;100030.50;5054094;28;20431;-90
2022/12/23 18:13:40;;;;;;;;;;;;;;;;;;;;;
2022/12/23 18:16:19;;;;;;;43.87;7.03;;;;;;;9.54;100.00;100033.81;5053457;28;20043;-90
2022/12/23 18:19:31;;;;;;;38.50;5.75;;;;;;;9.58;100.00;100059.38;5036156;28;20060;-89
2022/12/23 18:25:36;;;;;;;;;;;;;;;;;;;;;
2022/12/23 18:32:04;;;;;;;36.57;6.30;;;;;;;9.59;100.00;100062.91;4973185;28;20074;-88
2022/12/23 18:34:48;;;;;;;;;;;;;;;;;;;;;
2022/12/23 18:37:46;;;;;;;44.08;6.75;;;;;;;9.65;100.00;100065.56;4936577;28;20086;-89
2022/12/23 18:43:48;;;;;;;;;;;;;;;;;;;;;
2022/12/23 18:46:27;;;;;;;40.97;6.97;;;;;;;9.73;100.00;100068.97;4997404;28;20164;-91
2022/12/23 18:52:48;;;;;;;;;;;;;;;;;;;;;
2022/12/23 18:55:36;;;;;;;;;;;;;;;;;;;;;
2022/12/23 18:58:23;;;;;;;42.70;6.10;;;;;;;9.84;100.00;100082.56;5012767;28;20038;-91
2022/12/23 19:01:02;;;;;;;;;;;;;;;;;;;;;
2022/12/23 19:04:08;;;;;;;;;;;;;;;;;;;;;
2022/12/23 19:06:49;;;;;;;;;;;;;;;;;;;;;
2022/12/23 19:12:21;;;;;;;33.70;5.30;;;;;;;9.99;100.00;100089.47;5053436;28;20106;-90
2022/12/23 19:18:48;;;;;;;;;;;;;;;;;;;;;
2022/12/23 19:24:10;;;;;;;41.60;5.63;;;;;;;9.89;100.00;100090.03;5039335;28;20427;-91
2022/12/23 19:30:20;;;;;;;29.27;4.77;;;;;;;9.79;100.00;100106.81;5053330;28;20087;-90
2022/12/23 19:52:10;;;;;;;30.45;5.30;;;;;;;9.62;100.00;100149.13;5052786;28;20040;-90
2022/12/23 19:54:36;;;;;;;33.65;5.03;;;;;;;9.61;100.00;100151.00;5014975;28;20462;-90
2022/12/23 19:57:40;;;;;;;;;;;;;;;;;;;;;
2022/12/23 20:06:45;;;;;;;41.63;6.80;;;;;;;9.45;100.00;100178.69;5045073;28;20029;-89
2022/12/23 20:12:17;;;;;;;;;;;;;;;;;;;;;
2022/12/23 20:15:28;;;;;;;57.33;7.55;;;;;;;9.41;100.00;100191.03;5041286;28;20430;-91
2022/12/23 20:18:22;;;;;;;49.92;7.85;;;;;;;9.32;100.00;100190.47;5039509;28;20469;-90
2022/12/23 20:24:24;;;;;;;42.33;7.03;;;;;;;9.35;100.00;100225.22;4996159;28;20564;-91
2022/12/23 20:30:29;;;;;;;41.90;7.50;;;;;;;9.29;100.00;100239.66;4995035;28;20401;-89
2022/12/23 20:37:07;;;;;;;47.63;7.57;;;;;;;9.18;100.00;100252.00;4936629;29;20473;-90
2022/12/23 20:43:33;;;;;;;;;;;;;;;;;;;;;
2022/12/23 20:54:13;;;;;;;;;;;;;;;;;;;;;
2022/12/23 20:56:56;;;;;;;38.53;5.20;;;;;;;8.99;100.00;100270.09;4909572;28;20058;-90
2022/12/23 20:59:37;;;;;;;42.47;5.03;;;;;;;8.98;100.00;100262.19;4928632;28;20487;-90
2022/12/23 21:02:11;;;;;;;31.67;4.20;;;;;;;9.00;100.00;100333.13;4958290;28;20038;-88
2022/12/23 21:05:00;;;;;;;38.50;4.55;;;;;;;8.97;100.00;100291.09;5010505;28;20051;-89
2022/12/23 21:07:36;;;;;;;31.02;4.80;;;;;;;8.96;100.00;100321.91;5037582;28;20049;-89
2022/12/23 21:10:05;;;;;;;23.15;3.60;;;;;;;8.90;100.00;100295.72;5038164;28;20037;-89
2022/12/23 21:12:43;;;;;;;27.67;4.13;;;;;;;8.89;100.00;100313.03;5040401;28;20029;-89
2022/12/23 21:18:52;;;;;;;32.45;4.50;;;;;;;8.87;100.00;100321.38;4963523;28;20149;-88
2022/12/23 21:21:38;;;;;;;33.10;4.05;;;;;;;8.86;100.00;100313.44;4958131;28;20035;-88
2022/12/23 21:24:16;;;;;;;;;;;;;;;;;;;;;
2022/12/23 21:27:24;;;;;;;23.55;3.92;;;;;;;8.89;100.00;100329.25;4983333;28;20065;-89
2022/12/23 21:29:58;;;;;;;29.20;4.38;;;;;;;8.84;100.00;100310.94;5036995;28;20025;-88
2022/12/23 21:32:31;;;;;;;30.80;4.53;;;;;;;8.88;100.00;100339.22;5037204;28;20040;-88
2022/12/23 21:35:22;;;;;;;33.50;4.75;;;;;;;8.89;100.00;100353.59;5016610;28;20136;-89
2022/12/23 21:38:00;;;;;;;27.80;4.68;;;;;;;8.91;100.00;100346.91;5021097;28;20044;-88
2022/12/23 21:43:49;;;;;;;28.27;5.03;;;;;;;8.78;100.00;100352.41;4974263;28;20074;-87
2022/12/23 21:56:34;;;;;;;35.50;4.32;;;;;;;8.78;100.00;100376.75;4935385;28;20576;-89
2022/12/23 21:59:24;;;;;;;28.80;4.95;;;;;;;8.76;100.00;100379.66;4973141;28;20130;-90
2022/12/23 22:01:52;;;;;;;33.40;4.80;;;;;;;8.76;100.00;100382.38;4957450;28;20041;-90
2022/12/23 22:04:23;;;;;;;36.15;5.30;;;;;;;8.75;100.00;100380.72;5031933;28;20044;-90
2022/12/23 22:06:58;;;;;;;31.60;5.63;;;;;;;8.74;100.00;100386.31;5024327;28;20046;-91
2022/12/23 22:09:31;;;;;;;37.25;5.80;;;;;;;8.78;100.00;100392.97;5041080;28;20381;-90
2022/12/23 22:12:08;;;;;;;32.47;4.72;;;;;;;8.81;100.00;100405.25;5022506;28;20037;-90
2022/12/23 22:14:40;;;;;;;39.50;5.47;;;;;;;8.76;100.00;100392.38;5037142;28;20033;-90
2022/12/23 22:17:18;;;;;;;28.67;5.63;;;;;;;8.78;100.00;100404.63;5036195;28;20037;-90
2022/12/23 22:19:54;;;;;;;26.80;4.57;;;;;;;8.82;100.00;100437.50;5036672;28;20040;-90
2022/12/23 22:22:22;;;;;;;32.85;5.05;;;;;;;8.84;100.00;100412.94;5036677;28;20033;-90
2022/12/23 22:24:55;;;;;;;30.08;5.07;;;;;;;8.89;100.00;100423.94;5052409;28;20036;-90
2022/12/23 22:27:22;;;;;;;32.90;4.43;;;;;;;8.84;100.00;100432.69;5036819;28;20051;-91
2022/12/23 22:30:00;;;;;;;;;;;;;;;;;;;;;
2022/12/23 22:32:49;;;;;;;34.75;5.38;;;;;;;8.96;100.00;100440.97;5054868;28;20024;-91
2022/12/23 22:35:38;;;;;;;34.83;4.82;;;;;;;9.01;100.00;100424.94;5036424;28;20115;-90
2022/12/23 22:38:44;;;;;;;28.80;4.45;;;;;;;9.05;100.00;100430.72;5035908;28;20043;-91
2022/12/23 22:41:26;;;;;;;36.20;4.78;;;;;;;9.08;100.00;100439.25;5036446;28;20056;-91
2022/12/23 22:43:55;;;;;;;23.73;3.83;;;;;;;9.07;100.00;100429.47;5020435;28;20044;-91
2022/12/23 22:46:31;;;;;;;;;;;;;;;;;;;;;
2022/12/23 22:49:07;;;;;;;33.60;5.13;;;;;;;9.05;100.00;100439.69;5058546;28;20483;-91
2022/12/23 22:51:37;;;;;;;32.60;4.45;;;;;;;9.07;100.00;100439.47;5040485;28;20028;-92
2022/12/23 22:54:13;;;;;;;34.97;5.38;;;;;;;9.05;100.00;100428.88;5039794;28;20091;-91
2022/12/23 22:57:06;;;;;;;;;;;;;;;;;;;;;
2022/12/23 22:59:41;;;;;;;34.55;4.13;;;;;;;9.02;100.00;100447.41;5074444;28;20033;-91
2022/12/23 23:02:34;;;;;;;29.60;4.18;;;;;;;9.09;100.00;100454.47;5055491;28;20423;-91
2022/12/23 23:05:08;;;;;;;27.75;3.95;;;;;;;9.02;100.00;100460.94;5027706;28;20384;-91
2022/12/23 23:08:00;;;;;;;;;;;;;;;;;;;;;
2022/12/23 23:10:33;;;;;;;29.52;4.07;;;;;;;8.88;100.00;100455.56;5042647;28;20033;-91
2022/12/23 23:13:22;;;;;;;30.42;4.10;;;;;;;8.86;100.00;100463.09;5055610;28;20051;-91
2022/12/23 23:16:15;;;;;;;;;;;;;;;;;;;;;
2022/12/23 23:18:57;;;;;;;27.95;3.95;;;;;;;8.80;100.00;100460.38;5060042;28;20033;-91
2022/12/23 23:21:26;;;;;;;29.00;3.78;;;;;;;8.78;100.00;100469.56;5040331;28;20043;-92
2022/12/23 23:23:57;;;;;;;36.15;4.35;;;;;;;8.78;100.00;100482.25;5055447;28;20021;-91
2022/12/23 23:26:38;;;;;;;36.33;4.90;;;;;;;8.77;100.00;100484.13;5055771;28;20090;-91
2022/12/23 23:29:10;;;;;;;33.88;4.20;;;;;;;8.77;100.00;100503.06;5056835;28;20111;-92
2022/12/23 23:31:38;;;;;;;35.58;4.07;;;;;;;8.67;100.00;100470.22;5076368;28;20028;-91
2022/12/23 23:34:21;;;;;;;32.92;4.40;;;;;;;8.71;100.00;100486.84;5048758;28;20032;-91
2022/12/23 23:37:14;;;;;;;34.65;4.88;;;;;;;8.69;100.00;100497.88;5031877;28;20123;-91
2022/12/23 23:39:50;;;;;;;29.70;4.80;;;;;;;8.69;100.00;100505.16;5052922;28;20037;-92
2022/12/23 23:42:23;;;;;;;37.65;4.88;;;;;;;8.82;100.00;100515.94;5087102;28;20040;-91
2022/12/23 23:44:56;;;;;;;31.25;4.35;;;;;;;8.76;100.00;100508.69;5060036;28;20063;-92
2022/12/23 23:47:34;;;;;;;39.30;5.53;;;;;;;8.72;100.00;100510.13;5027968;28;20121;-91
2022/12/23 23:50:04;;;;;;;38.58;4.80;;;;;;;8.66;100.00;100502.88;5043716;28;20116;-90
2022/12/23 23:52:58;;;;;;;32.75;5.93;;;;;;;8.65;100.00;100510.16;5058616;28;20083;-91
2022/12/23 23:55:47;;;;;;;41.03;5.85;;;;;;;8.70;100.00;100512.25;5027747;28;20413;-92
2022/12/23 23:58:21;;;;;;;38.88;6.38;;;;;;;8.71;100.00;100525.56;5043580;28;20137;-91
